RYR48YU EGHQ-EGPH
Flight info
| Callsign | RYR48YU |
|---|---|
| Flight time | 1h 0m |
| Altitude | 32000 |
| Route | EPACE DCT CARWI DCT AZCAL DCT DIZIM DCT KISWO DCT AVTIC DCT ANJAK DCT NOKIN DCT RIBEL DCT INPIP |
| Aircraft | B738/M-SDE2E3FGHIRWXY/LB1 |
Departure
| Time | 2026-05-09 13:43 |
|---|---|
| Airport | Cornwall Airport Newquay (EGHQ) |
Arrival
| Time | 2026-05-09 14:43 |
|---|---|
| Airport | Edinburgh Airport (EGPH) |
| Time | Latitude | Longitude | Altitude | Speed | Heading |
|---|---|---|---|---|---|
| 2026-05-09 13:17 | 50.44682 | -5.00462 | 330 ft | 0 kts | 75° |
| 2026-05-09 13:18 | 50.44682 | -5.00466 | 330 ft | 0 kts | 76° |
| 2026-05-09 13:18 | 50.44682 | -5.00467 | 330 ft | 0 kts | 76° |
| 2026-05-09 13:21 | 50.44681 | -5.00467 | 330 ft | 0 kts | 76° |
| 2026-05-09 13:26 | 50.44681 | -5.00468 | 334 ft | 0 kts | 76° |
| 2026-05-09 13:31 | 50.44681 | -5.00469 | 334 ft | 0 kts | 76° |
| 2026-05-09 13:36 | 50.44679 | -5.00485 | 316 ft | 4 kts | 66° |
| 2026-05-09 13:36 | 50.44666 | -5.00509 | 332 ft | 5 kts | 355° |
| 2026-05-09 13:37 | 50.44638 | -5.00482 | 325 ft | 5 kts | 303° |
| 2026-05-09 13:37 | 50.44635 | -5.00475 | 326 ft | 3 kts | 300° |
| 2026-05-09 13:40 | 50.44639 | -5.00484 | 330 ft | 4 kts | 300° |
| 2026-05-09 13:40 | 50.44667 | -5.00559 | 325 ft | 12 kts | 300° |
| 2026-05-09 13:41 | 50.44723 | -5.00707 | 323 ft | 18 kts | 301° |
| 2026-05-09 13:41 | 50.44790 | -5.00886 | 319 ft | 19 kts | 300° |
| 2026-05-09 13:41 | 50.44790 | -5.01077 | 314 ft | 18 kts | 240° |
| 2026-05-09 13:41 | 50.44694 | -5.01150 | 314 ft | 15 kts | 156° |
| 2026-05-09 13:42 | 50.44643 | -5.01033 | 317 ft | 11 kts | 121° |
| 2026-05-09 13:42 | 50.44578 | -5.00859 | 320 ft | 42 kts | 120° |
| 2026-05-09 13:42 | 50.44310 | -5.00146 | 340 ft | 107 kts | 120° |
| 2026-05-09 13:42 | 50.43835 | -4.98879 | 376 ft | 157 kts | 120° |
| 2026-05-09 13:43 | 50.43214 | -4.97430 | 900 ft | 165 kts | 124° |
| 2026-05-09 13:43 | 50.42514 | -4.95957 | 1555 ft | 172 kts | 118° |
| 2026-05-09 13:43 | 50.42336 | -4.94119 | 1946 ft | 187 kts | 70° |
| 2026-05-09 13:43 | 50.43130 | -4.92499 | 2621 ft | 186 kts | 43° |
| 2026-05-09 13:44 | 50.44096 | -4.91239 | 3551 ft | 175 kts | 45° |
| 2026-05-09 13:44 | 50.44988 | -4.89976 | 4277 ft | 177 kts | 47° |
| 2026-05-09 13:44 | 50.45904 | -4.88574 | 4819 ft | 187 kts | 52° |
| 2026-05-09 13:44 | 50.46735 | -4.86916 | 5160 ft | 206 kts | 44° |
| 2026-05-09 13:45 | 50.48069 | -4.85762 | 5385 ft | 229 kts | 28° |
| 2026-05-09 13:45 | 50.49526 | -4.84622 | 5808 ft | 238 kts | 32° |
| 2026-05-09 13:45 | 50.50935 | -4.83286 | 6358 ft | 241 kts | 36° |
| 2026-05-09 13:45 | 50.52308 | -4.81765 | 6961 ft | 242 kts | 40° |
| 2026-05-09 13:46 | 50.53632 | -4.80108 | 7544 ft | 244 kts | 43° |
| 2026-05-09 13:46 | 50.54918 | -4.78340 | 8119 ft | 246 kts | 45° |
| 2026-05-09 13:46 | 50.56176 | -4.76486 | 8753 ft | 247 kts | 48° |
| 2026-05-09 13:46 | 50.57402 | -4.74576 | 9302 ft | 253 kts | 49° |
| 2026-05-09 13:47 | 50.58635 | -4.72574 | 9930 ft | 258 kts | 50° |
| 2026-05-09 13:47 | 50.59914 | -4.70429 | 10265 ft | 278 kts | 51° |
| 2026-05-09 13:47 | 50.61285 | -4.68072 | 10436 ft | 304 kts | 50° |
| 2026-05-09 13:47 | 50.62757 | -4.65498 | 10625 ft | 327 kts | 50° |
| 2026-05-09 13:48 | 50.64280 | -4.62806 | 11097 ft | 339 kts | 50° |
| 2026-05-09 13:48 | 50.65857 | -4.59992 | 11765 ft | 344 kts | 51° |
| 2026-05-09 13:48 | 50.67448 | -4.57129 | 12568 ft | 347 kts | 51° |
| 2026-05-09 13:48 | 50.69163 | -4.54410 | 13299 ft | 355 kts | 40° |
| 2026-05-09 13:49 | 50.71285 | -4.52359 | 14033 ft | 362 kts | 27° |
| 2026-05-09 13:49 | 50.73582 | -4.50759 | 14755 ft | 367 kts | 25° |
| 2026-05-09 13:49 | 50.75950 | -4.49154 | 15441 ft | 372 kts | 25° |
| 2026-05-09 13:49 | 50.78349 | -4.47532 | 16100 ft | 378 kts | 25° |
| 2026-05-09 13:50 | 50.80791 | -4.45871 | 16805 ft | 383 kts | 24° |
| 2026-05-09 13:50 | 50.83240 | -4.44194 | 17385 ft | 391 kts | 24° |
| 2026-05-09 13:50 | 50.85746 | -4.42465 | 18108 ft | 395 kts | 24° |
| 2026-05-09 13:50 | 50.88284 | -4.40706 | 18702 ft | 400 kts | 24° |
| 2026-05-09 13:51 | 50.90845 | -4.38924 | 19419 ft | 401 kts | 24° |
| 2026-05-09 13:51 | 50.93421 | -4.37125 | 19981 ft | 406 kts | 24° |
| 2026-05-09 13:51 | 50.96019 | -4.35308 | 20624 ft | 409 kts | 24° |
| 2026-05-09 13:51 | 50.98648 | -4.33466 | 21179 ft | 414 kts | 24° |
| 2026-05-09 13:52 | 51.01257 | -4.31635 | 21807 ft | 416 kts | 24° |
| 2026-05-09 13:52 | 51.03926 | -4.29760 | 22363 ft | 421 kts | 24° |
| 2026-05-09 13:52 | 51.06594 | -4.27884 | 22952 ft | 423 kts | 24° |
| 2026-05-09 13:52 | 51.09305 | -4.25974 | 23465 ft | 427 kts | 24° |
| 2026-05-09 13:53 | 51.12042 | -4.24043 | 23978 ft | 430 kts | 24° |
| 2026-05-09 13:53 | 51.14784 | -4.22107 | 24447 ft | 433 kts | 24° |
| 2026-05-09 13:53 | 51.17543 | -4.20157 | 24931 ft | 435 kts | 24° |
| 2026-05-09 13:53 | 51.20320 | -4.18191 | 25377 ft | 437 kts | 24° |
| 2026-05-09 13:54 | 51.23092 | -4.16226 | 25840 ft | 439 kts | 24° |
| 2026-05-09 13:54 | 51.25897 | -4.14234 | 26266 ft | 442 kts | 24° |
| 2026-05-09 13:54 | 51.28725 | -4.12224 | 26730 ft | 444 kts | 24° |
| 2026-05-09 13:54 | 51.31518 | -4.10236 | 27161 ft | 446 kts | 24° |
| 2026-05-09 13:55 | 51.34372 | -4.08202 | 27595 ft | 448 kts | 24° |
| 2026-05-09 13:55 | 51.37239 | -4.06155 | 28018 ft | 450 kts | 24° |
| 2026-05-09 13:55 | 51.40109 | -4.04103 | 28420 ft | 452 kts | 24° |
| 2026-05-09 13:55 | 51.42950 | -4.02070 | 28801 ft | 454 kts | 25° |
| 2026-05-09 13:56 | 51.45848 | -3.99993 | 29158 ft | 457 kts | 25° |
| 2026-05-09 13:56 | 51.48768 | -3.97898 | 29618 ft | 457 kts | 25° |
| 2026-05-09 13:56 | 51.51671 | -3.95811 | 30176 ft | 455 kts | 25° |
| 2026-05-09 13:56 | 51.54568 | -3.93725 | 30503 ft | 457 kts | 25° |
| 2026-05-09 13:57 | 51.57475 | -3.91629 | 30801 ft | 459 kts | 25° |
| 2026-05-09 13:57 | 51.60366 | -3.89543 | 31215 ft | 458 kts | 25° |
| 2026-05-09 13:57 | 51.63292 | -3.87427 | 31667 ft | 457 kts | 25° |
| 2026-05-09 13:57 | 51.66158 | -3.85353 | 32049 ft | 457 kts | 25° |
| 2026-05-09 13:58 | 51.72027 | -3.81094 | 32107 ft | 465 kts | 25° |
| 2026-05-09 13:58 | 51.77915 | -3.76813 | 32100 ft | 459 kts | 25° |
| 2026-05-09 13:59 | 51.83699 | -3.72597 | 32121 ft | 458 kts | 24° |
| 2026-05-09 13:59 | 51.89521 | -3.68342 | 32117 ft | 460 kts | 24° |
| 2026-05-09 14:00 | 51.93435 | -3.65473 | 32110 ft | 461 kts | 24° |
| 2026-05-09 14:00 | 52.01206 | -3.59760 | 32132 ft | 462 kts | 25° |
| 2026-05-09 14:01 | 52.07069 | -3.55431 | 32129 ft | 462 kts | 25° |
| 2026-05-09 14:01 | 52.12909 | -3.51111 | 32128 ft | 461 kts | 25° |
| 2026-05-09 14:02 | 52.18756 | -3.46773 | 32141 ft | 460 kts | 25° |
| 2026-05-09 14:02 | 52.24547 | -3.42463 | 32136 ft | 460 kts | 25° |
| 2026-05-09 14:03 | 52.30382 | -3.38107 | 32145 ft | 460 kts | 25° |
| 2026-05-09 14:03 | 52.36185 | -3.33764 | 32154 ft | 462 kts | 25° |
| 2026-05-09 14:04 | 52.42107 | -3.29320 | 32158 ft | 475 kts | 25° |
| 2026-05-09 14:04 | 52.48216 | -3.24724 | 32167 ft | 487 kts | 25° |
| 2026-05-09 14:05 | 52.54415 | -3.20048 | 32164 ft | 496 kts | 25° |
| 2026-05-09 14:05 | 52.60707 | -3.15482 | 32136 ft | 496 kts | 18° |
| 2026-05-09 14:06 | 52.67462 | -3.13357 | 32161 ft | 493 kts | 2° |
| 2026-05-09 14:06 | 52.74200 | -3.11462 | 32170 ft | 496 kts | 18° |
| 2026-05-09 14:07 | 52.80496 | -3.06703 | 32155 ft | 497 kts | 27° |
| 2026-05-09 14:07 | 52.86714 | -3.01612 | 32137 ft | 498 kts | 26° |
| 2026-05-09 14:08 | 52.93056 | -2.97072 | 32164 ft | 498 kts | 20° |
| 2026-05-09 14:08 | 52.99603 | -2.93198 | 32167 ft | 500 kts | 19° |
| 2026-05-09 14:09 | 53.06122 | -2.89277 | 32168 ft | 502 kts | 20° |
| 2026-05-09 14:09 | 53.12711 | -2.85204 | 32164 ft | 503 kts | 20° |
| 2026-05-09 14:10 | 53.22517 | -2.79130 | 32156 ft | 503 kts | 18° |
| 2026-05-09 14:10 | 53.25918 | -2.77716 | 32156 ft | 502 kts | 7° |
| 2026-05-09 14:11 | 53.29398 | -2.77237 | 32160 ft | 499 kts | 357° |
| 2026-05-09 14:11 | 53.36311 | -2.77773 | 32168 ft | 499 kts | 354° |
| 2026-05-09 14:12 | 53.43256 | -2.78433 | 32175 ft | 499 kts | 354° |
| 2026-05-09 14:12 | 53.50210 | -2.79013 | 32168 ft | 499 kts | 355° |
| 2026-05-09 14:13 | 53.57109 | -2.79534 | 32173 ft | 499 kts | 355° |
| 2026-05-09 14:14 | 53.80140 | -2.81243 | 32190 ft | 469 kts | 354° |
| 2026-05-09 14:15 | 53.83370 | -2.81488 | 32190 ft | 469 kts | 354° |
| 2026-05-09 14:15 | 53.89912 | -2.81984 | 32005 ft | 471 kts | 354° |
| 2026-05-09 14:15 | 53.93176 | -2.82232 | 31746 ft | 467 kts | 354° |
| 2026-05-09 14:16 | 53.96374 | -2.82474 | 31505 ft | 464 kts | 354° |
| 2026-05-09 14:16 | 53.99608 | -2.82718 | 31253 ft | 463 kts | 354° |
| 2026-05-09 14:16 | 54.02821 | -2.82962 | 31015 ft | 462 kts | 354° |
| 2026-05-09 14:16 | 54.06014 | -2.83205 | 30850 ft | 452 kts | 354° |
| 2026-05-09 14:17 | 54.09092 | -2.83436 | 30698 ft | 441 kts | 354° |
| 2026-05-09 14:17 | 54.12125 | -2.83663 | 30521 ft | 431 kts | 354° |
| 2026-05-09 14:17 | 54.15097 | -2.83888 | 30352 ft | 421 kts | 354° |
| 2026-05-09 14:17 | 54.18008 | -2.84110 | 30163 ft | 412 kts | 354° |
| 2026-05-09 14:18 | 54.20821 | -2.84327 | 29978 ft | 409 kts | 354° |
| 2026-05-09 14:18 | 54.23680 | -2.84551 | 29839 ft | 409 kts | 353° |
| 2026-05-09 14:18 | 54.26530 | -2.84774 | 29653 ft | 409 kts | 353° |
| 2026-05-09 14:18 | 54.29348 | -2.84995 | 29479 ft | 410 kts | 353° |
| 2026-05-09 14:19 | 54.32202 | -2.85219 | 29310 ft | 410 kts | 353° |
| 2026-05-09 14:19 | 54.35056 | -2.85441 | 29132 ft | 410 kts | 353° |
| 2026-05-09 14:19 | 54.37932 | -2.85665 | 28948 ft | 410 kts | 353° |
| 2026-05-09 14:19 | 54.40754 | -2.85884 | 28779 ft | 410 kts | 353° |
| 2026-05-09 14:20 | 54.43614 | -2.86106 | 28609 ft | 410 kts | 353° |
| 2026-05-09 14:20 | 54.46460 | -2.86328 | 28431 ft | 408 kts | 353° |
| 2026-05-09 14:20 | 54.49306 | -2.86549 | 28279 ft | 407 kts | 352° |
| 2026-05-09 14:21 | 54.54924 | -2.86981 | 27930 ft | 405 kts | 352° |
| 2026-05-09 14:21 | 54.57738 | -2.87222 | 27759 ft | 403 kts | 352° |
| 2026-05-09 14:21 | 54.59632 | -2.87373 | 27636 ft | 402 kts | 352° |
| 2026-05-09 14:21 | 54.62396 | -2.87586 | 27473 ft | 400 kts | 352° |
| 2026-05-09 14:22 | 54.65171 | -2.87800 | 27310 ft | 399 kts | 352° |
| 2026-05-09 14:22 | 54.68839 | -2.88085 | 27079 ft | 396 kts | 352° |
| 2026-05-09 14:22 | 54.70702 | -2.88232 | 26964 ft | 395 kts | 352° |
| 2026-05-09 14:22 | 54.73422 | -2.88448 | 26844 ft | 394 kts | 351° |
| 2026-05-09 14:23 | 54.76165 | -2.88668 | 26674 ft | 393 kts | 351° |
| 2026-05-09 14:23 | 54.78899 | -2.88888 | 26511 ft | 392 kts | 351° |
| 2026-05-09 14:23 | 54.81595 | -2.89103 | 26355 ft | 392 kts | 351° |
| 2026-05-09 14:23 | 54.84328 | -2.89319 | 26270 ft | 391 kts | 351° |
| 2026-05-09 14:24 | 54.87029 | -2.89705 | 26151 ft | 386 kts | 343° |
| 2026-05-09 14:24 | 54.89603 | -2.90834 | 25926 ft | 377 kts | 332° |
| 2026-05-09 14:24 | 54.92029 | -2.92532 | 25560 ft | 374 kts | 330° |
| 2026-05-09 14:24 | 54.94430 | -2.94317 | 25173 ft | 372 kts | 329° |
| 2026-05-09 14:25 | 54.96779 | -2.96076 | 24804 ft | 371 kts | 329° |
| 2026-05-09 14:25 | 54.99163 | -2.97850 | 24435 ft | 371 kts | 329° |
| 2026-05-09 14:25 | 55.01503 | -2.99575 | 24045 ft | 366 kts | 329° |
| 2026-05-09 14:25 | 55.03839 | -3.01286 | 23601 ft | 361 kts | 329° |
| 2026-05-09 14:26 | 55.06150 | -3.02976 | 23115 ft | 355 kts | 329° |
| 2026-05-09 14:26 | 55.08415 | -3.04634 | 22638 ft | 349 kts | 329° |
| 2026-05-09 14:26 | 55.10640 | -3.06264 | 22187 ft | 344 kts | 329° |
| 2026-05-09 14:26 | 55.12815 | -3.07857 | 21736 ft | 340 kts | 329° |
| 2026-05-09 14:27 | 55.14990 | -3.09450 | 21277 ft | 336 kts | 329° |
| 2026-05-09 14:27 | 55.17135 | -3.11022 | 20844 ft | 332 kts | 329° |
| 2026-05-09 14:27 | 55.19263 | -3.12582 | 20337 ft | 331 kts | 330° |
| 2026-05-09 14:27 | 55.21361 | -3.14125 | 19851 ft | 329 kts | 330° |
| 2026-05-09 14:28 | 55.23483 | -3.15688 | 19367 ft | 329 kts | 330° |
| 2026-05-09 14:28 | 55.25599 | -3.17247 | 18812 ft | 330 kts | 330° |
| 2026-05-09 14:28 | 55.27700 | -3.18795 | 18215 ft | 329 kts | 331° |
| 2026-05-09 14:28 | 55.29811 | -3.20348 | 17573 ft | 326 kts | 331° |
| 2026-05-09 14:29 | 55.31905 | -3.21891 | 16958 ft | 322 kts | 331° |
| 2026-05-09 14:29 | 55.33937 | -3.23389 | 16365 ft | 319 kts | 332° |
| 2026-05-09 14:29 | 55.35973 | -3.24895 | 15773 ft | 316 kts | 332° |
| 2026-05-09 14:29 | 55.38001 | -3.26397 | 15199 ft | 313 kts | 332° |
| 2026-05-09 14:30 | 55.40006 | -3.27886 | 14615 ft | 311 kts | 332° |
| 2026-05-09 14:30 | 55.41995 | -3.29366 | 14056 ft | 309 kts | 332° |
| 2026-05-09 14:30 | 55.43945 | -3.30819 | 13434 ft | 307 kts | 333° |
| 2026-05-09 14:30 | 55.45904 | -3.32276 | 12808 ft | 304 kts | 333° |
| 2026-05-09 14:31 | 55.47846 | -3.33721 | 12197 ft | 301 kts | 333° |
| 2026-05-09 14:31 | 55.49747 | -3.35244 | 11614 ft | 297 kts | 331° |
| 2026-05-09 14:31 | 55.51587 | -3.36910 | 11042 ft | 294 kts | 330° |
| 2026-05-09 14:31 | 55.53375 | -3.38583 | 10475 ft | 292 kts | 330° |
| 2026-05-09 14:32 | 55.55160 | -3.40279 | 10008 ft | 285 kts | 329° |
| 2026-05-09 14:32 | 55.56873 | -3.41917 | 9635 ft | 274 kts | 329° |
| 2026-05-09 14:32 | 55.58507 | -3.43494 | 9288 ft | 266 kts | 329° |
| 2026-05-09 14:32 | 55.60105 | -3.45045 | 8930 ft | 258 kts | 329° |
| 2026-05-09 14:33 | 55.61656 | -3.46566 | 8583 ft | 251 kts | 329° |
| 2026-05-09 14:33 | 55.63152 | -3.48039 | 8251 ft | 241 kts | 329° |
| 2026-05-09 14:33 | 55.64570 | -3.49443 | 7859 ft | 231 kts | 329° |
| 2026-05-09 14:33 | 55.65952 | -3.50814 | 7463 ft | 223 kts | 329° |
| 2026-05-09 14:34 | 55.67282 | -3.52162 | 7069 ft | 216 kts | 329° |
| 2026-05-09 14:34 | 55.68563 | -3.53478 | 6715 ft | 208 kts | 329° |
| 2026-05-09 14:34 | 55.69785 | -3.54758 | 6306 ft | 203 kts | 329° |
| 2026-05-09 14:34 | 55.70985 | -3.56040 | 5937 ft | 196 kts | 329° |
| 2026-05-09 14:35 | 55.72125 | -3.57288 | 5607 ft | 189 kts | 329° |
| 2026-05-09 14:35 | 55.73213 | -3.58505 | 5367 ft | 180 kts | 330° |
| 2026-05-09 14:35 | 55.74236 | -3.59671 | 5127 ft | 174 kts | 329° |
| 2026-05-09 14:35 | 55.75228 | -3.60801 | 4935 ft | 164 kts | 329° |
| 2026-05-09 14:36 | 55.76177 | -3.61892 | 4780 ft | 161 kts | 329° |
| 2026-05-09 14:36 | 55.77118 | -3.62972 | 4625 ft | 160 kts | 329° |
| 2026-05-09 14:36 | 55.78054 | -3.64038 | 4478 ft | 160 kts | 329° |
| 2026-05-09 14:36 | 55.78980 | -3.65096 | 4362 ft | 160 kts | 329° |
| 2026-05-09 14:37 | 55.79924 | -3.66199 | 4237 ft | 164 kts | 329° |
| 2026-05-09 14:37 | 55.80882 | -3.67324 | 3973 ft | 164 kts | 329° |
| 2026-05-09 14:37 | 55.81875 | -3.68213 | 3692 ft | 158 kts | 355° |
| 2026-05-09 14:37 | 55.82894 | -3.67799 | 3436 ft | 153 kts | 27° |
| 2026-05-09 14:38 | 55.83827 | -3.66920 | 3319 ft | 151 kts | 29° |
| 2026-05-09 14:38 | 55.84769 | -3.66017 | 3303 ft | 154 kts | 29° |
| 2026-05-09 14:38 | 55.85611 | -3.64807 | 3275 ft | 158 kts | 56° |
| 2026-05-09 14:38 | 55.86208 | -3.63172 | 3285 ft | 160 kts | 56° |
| 2026-05-09 14:39 | 55.86824 | -3.61490 | 3153 ft | 165 kts | 57° |
| 2026-05-09 14:39 | 55.87426 | -3.59745 | 2940 ft | 164 kts | 59° |
| 2026-05-09 14:39 | 55.88002 | -3.58042 | 2725 ft | 161 kts | 60° |
| 2026-05-09 14:39 | 55.88559 | -3.56381 | 2498 ft | 151 kts | 60° |
| 2026-05-09 14:40 | 55.89073 | -3.54849 | 2302 ft | 139 kts | 60° |
| 2026-05-09 14:40 | 55.89546 | -3.53436 | 2123 ft | 131 kts | 60° |
| 2026-05-09 14:40 | 55.90002 | -3.52079 | 1938 ft | 126 kts | 62° |
| 2026-05-09 14:40 | 55.90444 | -3.50768 | 1777 ft | 121 kts | 62° |
| 2026-05-09 14:41 | 55.90886 | -3.49454 | 1603 ft | 126 kts | 62° |
| 2026-05-09 14:41 | 55.91342 | -3.48101 | 1420 ft | 129 kts | 62° |
| 2026-05-09 14:41 | 55.91794 | -3.46759 | 1238 ft | 126 kts | 63° |
| 2026-05-09 14:41 | 55.92235 | -3.45450 | 1078 ft | 124 kts | 62° |
| 2026-05-09 14:42 | 55.92674 | -3.44145 | 893 ft | 120 kts | 63° |
| 2026-05-09 14:42 | 55.93110 | -3.42852 | 732 ft | 122 kts | 62° |
| 2026-05-09 14:42 | 55.93545 | -3.41561 | 561 ft | 124 kts | 62° |
| 2026-05-09 14:42 | 55.93984 | -3.40224 | 379 ft | 126 kts | 63° |
| 2026-05-09 14:43 | 55.94428 | -3.38933 | 156 ft | 117 kts | 62° |
| 2026-05-09 14:43 | 55.94809 | -3.37809 | 113 ft | 88 kts | 59° |
| 2026-05-09 14:43 | 55.95048 | -3.37108 | 110 ft | 44 kts | 59° |
| 2026-05-09 14:43 | 55.95186 | -3.36697 | 111 ft | 34 kts | 59° |
| 2026-05-09 14:44 | 55.95255 | -3.36475 | 110 ft | 9 kts | 77° |
| 2026-05-09 14:44 | 55.95222 | -3.36383 | 113 ft | 9 kts | 147° |
| 2026-05-09 14:44 | 55.95184 | -3.36340 | 113 ft | 3 kts | 148° |
| 2026-05-09 14:44 | 55.95182 | -3.36339 | 113 ft | 0 kts | 147° |
| 2026-05-09 14:45 | 55.95165 | -3.36322 | 113 ft | 8 kts | 155° |
| 2026-05-09 14:45 | 55.95100 | -3.36382 | 113 ft | 15 kts | 237° |
| 2026-05-09 14:45 | 55.95037 | -3.36569 | 113 ft | 18 kts | 239° |
| 2026-05-09 14:45 | 55.94972 | -3.36759 | 112 ft | 14 kts | 239° |
| 2026-05-09 14:46 | 55.94907 | -3.36813 | 115 ft | 12 kts | 153° |
| 2026-05-09 14:46 | 55.94844 | -3.36779 | 115 ft | 9 kts | 179° |
| 2026-05-09 14:46 | 55.94782 | -3.36770 | 115 ft | 9 kts | 160° |
| 2026-05-09 14:46 | 55.94726 | -3.36739 | 115 ft | 8 kts | 177° |
| 2026-05-09 14:47 | 55.94702 | -3.36698 | 115 ft | 6 kts | 95° |
| 2026-05-09 14:47 | 55.94702 | -3.36647 | 115 ft | 3 kts | 89° |
| 2026-05-09 14:47 | 55.94702 | -3.36612 | 115 ft | 1 kts | 89° |
| 2026-05-09 14:47 | 55.94702 | -3.36603 | 115 ft | 0 kts | 89° |